sensor_id;sensor_type;location;lat;lon;timestamp;P1;durP1;ratioP1;P2;durP2;ratioP2
20044;SDS011;10183;47.808;9.476;2023-12-29T00:01:05;39.30;;;31.93;;
20044;SDS011;10183;47.808;9.476;2023-12-29T00:03:51;41.50;;;33.43;;
20044;SDS011;10183;47.808;9.476;2023-12-29T00:06:37;43.50;;;34.03;;
20044;SDS011;10183;47.808;9.476;2023-12-29T00:09:24;40.87;;;33.20;;
20044;SDS011;10183;47.808;9.476;2023-12-29T00:12:10;41.77;;;33.17;;
20044;SDS011;10183;47.808;9.476;2023-12-29T00:14:56;41.20;;;32.73;;
20044;SDS011;10183;47.808;9.476;2023-12-29T00:17:42;42.37;;;34.03;;
20044;SDS011;10183;47.808;9.476;2023-12-29T00:20:27;39.57;;;33.10;;
20044;SDS011;10183;47.808;9.476;2023-12-29T00:23:14;38.20;;;33.00;;
20044;SDS011;10183;47.808;9.476;2023-12-29T00:26:00;44.00;;;35.33;;
20044;SDS011;10183;47.808;9.476;2023-12-29T00:28:46;42.97;;;35.60;;
20044;SDS011;10183;47.808;9.476;2023-12-29T00:31:32;47.13;;;36.07;;
20044;SDS011;10183;47.808;9.476;2023-12-29T00:34:18;43.40;;;36.20;;
20044;SDS011;10183;47.808;9.476;2023-12-29T00:37:04;47.53;;;37.50;;
20044;SDS011;10183;47.808;9.476;2023-12-29T00:39:51;44.30;;;35.47;;
20044;SDS011;10183;47.808;9.476;2023-12-29T00:42:37;46.10;;;35.33;;
20044;SDS011;10183;47.808;9.476;2023-12-29T00:45:23;45.13;;;34.37;;
20044;SDS011;10183;47.808;9.476;2023-12-29T00:48:10;44.90;;;35.07;;
20044;SDS011;10183;47.808;9.476;2023-12-29T00:50:56;45.57;;;35.80;;
20044;SDS011;10183;47.808;9.476;2023-12-29T00:53:42;37.97;;;31.77;;
20044;SDS011;10183;47.808;9.476;2023-12-29T00:56:28;36.60;;;31.30;;
20044;SDS011;10183;47.808;9.476;2023-12-29T00:59:14;33.87;;;29.57;;
20044;SDS011;10183;47.808;9.476;2023-12-29T01:02:00;32.43;;;28.57;;
20044;SDS011;10183;47.808;9.476;2023-12-29T01:04:46;33.67;;;28.00;;
20044;SDS011;10183;47.808;9.476;2023-12-29T01:07:33;31.27;;;28.00;;
20044;SDS011;10183;47.808;9.476;2023-12-29T01:10:18;30.73;;;27.47;;
20044;SDS011;10183;47.808;9.476;2023-12-29T01:13:04;31.13;;;28.00;;
20044;SDS011;10183;47.808;9.476;2023-12-29T01:15:50;30.27;;;27.17;;
20044;SDS011;10183;47.808;9.476;2023-12-29T01:18:36;31.70;;;28.30;;
20044;SDS011;10183;47.808;9.476;2023-12-29T01:21:22;30.67;;;27.47;;
20044;SDS011;10183;47.808;9.476;2023-12-29T01:24:08;30.13;;;26.93;;
20044;SDS011;10183;47.808;9.476;2023-12-29T01:26:54;31.07;;;27.70;;
20044;SDS011;10183;47.808;9.476;2023-12-29T01:29:41;31.40;;;28.23;;
20044;SDS011;10183;47.808;9.476;2023-12-29T01:32:27;31.67;;;28.43;;
20044;SDS011;10183;47.808;9.476;2023-12-29T01:35:13;30.47;;;26.90;;
20044;SDS011;10183;47.808;9.476;2023-12-29T01:37:58;29.70;;;26.60;;
20044;SDS011;10183;47.808;9.476;2023-12-29T01:40:46;31.37;;;25.30;;
20044;SDS011;10183;47.808;9.476;2023-12-29T01:43:32;29.87;;;26.67;;
20044;SDS011;10183;47.808;9.476;2023-12-29T01:46:18;35.17;;;28.77;;
20044;SDS011;10183;47.808;9.476;2023-12-29T01:49:04;34.93;;;29.30;;
20044;SDS011;10183;47.808;9.476;2023-12-29T01:51:51;34.97;;;30.37;;
20044;SDS011;10183;47.808;9.476;2023-12-29T01:54:42;33.37;;;29.87;;
20044;SDS011;10183;47.808;9.476;2023-12-29T01:57:30;35.07;;;30.47;;
20044;SDS011;10183;47.808;9.476;2023-12-29T02:00:20;33.50;;;29.90;;
20044;SDS011;10183;47.808;9.476;2023-12-29T02:03:06;33.50;;;29.50;;
20044;SDS011;10183;47.808;9.476;2023-12-29T02:05:53;32.13;;;28.73;;
20044;SDS011;10183;47.808;9.476;2023-12-29T02:08:40;32.83;;;28.07;;
20044;SDS011;10183;47.808;9.476;2023-12-29T02:11:26;31.67;;;28.37;;
20044;SDS011;10183;47.808;9.476;2023-12-29T02:14:13;31.67;;;27.97;;
20044;SDS011;10183;47.808;9.476;2023-12-29T02:17:05;31.13;;;27.17;;
20044;SDS011;10183;47.808;9.476;2023-12-29T02:19:53;30.50;;;26.27;;
20044;SDS011;10183;47.808;9.476;2023-12-29T02:22:40;31.87;;;28.57;;
20044;SDS011;10183;47.808;9.476;2023-12-29T02:25:26;34.17;;;29.00;;
20044;SDS011;10183;47.808;9.476;2023-12-29T02:31:09;31.93;;;26.87;;
20044;SDS011;10183;47.808;9.476;2023-12-29T02:34:00;32.30;;;27.20;;
20044;SDS011;10183;47.808;9.476;2023-12-29T02:36:51;30.90;;;27.47;;
20044;SDS011;10183;47.808;9.476;2023-12-29T02:39:38;31.97;;;26.63;;
20044;SDS011;10183;47.808;9.476;2023-12-29T02:42:24;29.60;;;26.50;;
20044;SDS011;10183;47.808;9.476;2023-12-29T02:45:10;32.83;;;26.63;;
20044;SDS011;10183;47.808;9.476;2023-12-29T02:47:57;32.00;;;27.27;;
20044;SDS011;10183;47.808;9.476;2023-12-29T02:50:43;31.13;;;27.73;;
20044;SDS011;10183;47.808;9.476;2023-12-29T02:53:29;30.60;;;27.43;;
20044;SDS011;10183;47.808;9.476;2023-12-29T02:56:15;32.50;;;27.77;;
20044;SDS011;10183;47.808;9.476;2023-12-29T02:59:02;33.03;;;28.03;;
20044;SDS011;10183;47.808;9.476;2023-12-29T03:01:48;32.57;;;28.60;;
20044;SDS011;10183;47.808;9.476;2023-12-29T03:04:34;31.37;;;27.93;;
20044;SDS011;10183;47.808;9.476;2023-12-29T03:07:20;32.80;;;29.30;;
20044;SDS011;10183;47.808;9.476;2023-12-29T03:10:06;32.47;;;28.77;;
20044;SDS011;10183;47.808;9.476;2023-12-29T03:12:53;31.03;;;27.73;;
20044;SDS011;10183;47.808;9.476;2023-12-29T03:15:38;33.03;;;29.53;;
20044;SDS011;10183;47.808;9.476;2023-12-29T03:18:24;32.90;;;29.40;;
20044;SDS011;10183;47.808;9.476;2023-12-29T03:21:10;32.70;;;29.20;;
20044;SDS011;10183;47.808;9.476;2023-12-29T03:23:56;32.97;;;29.53;;
20044;SDS011;10183;47.808;9.476;2023-12-29T03:26:42;30.10;;;26.83;;
20044;SDS011;10183;47.808;9.476;2023-12-29T03:29:28;30.73;;;27.47;;
20044;SDS011;10183;47.808;9.476;2023-12-29T03:32:14;32.37;;;27.97;;
20044;SDS011;10183;47.808;9.476;2023-12-29T03:35:01;32.30;;;28.80;;
20044;SDS011;10183;47.808;9.476;2023-12-29T03:37:47;33.07;;;28.10;;
20044;SDS011;10183;47.808;9.476;2023-12-29T03:40:33;31.00;;;27.80;;
20044;SDS011;10183;47.808;9.476;2023-12-29T03:43:18;31.77;;;27.27;;
20044;SDS011;10183;47.808;9.476;2023-12-29T03:46:14;31.03;;;25.50;;
20044;SDS011;10183;47.808;9.476;2023-12-29T03:49:04;32.37;;;27.53;;
20044;SDS011;10183;47.808;9.476;2023-12-29T03:51:50;31.17;;;27.77;;
20044;SDS011;10183;47.808;9.476;2023-12-29T03:54:36;29.67;;;26.30;;
20044;SDS011;10183;47.808;9.476;2023-12-29T03:57:22;31.27;;;27.97;;
20044;SDS011;10183;47.808;9.476;2023-12-29T04:00:10;32.60;;;29.40;;
20044;SDS011;10183;47.808;9.476;2023-12-29T04:02:58;31.53;;;28.33;;
20044;SDS011;10183;47.808;9.476;2023-12-29T04:05:44;31.83;;;27.77;;
20044;SDS011;10183;47.808;9.476;2023-12-29T04:08:30;32.60;;;29.03;;
20044;SDS011;10183;47.808;9.476;2023-12-29T04:11:16;31.30;;;28.20;;
20044;SDS011;10183;47.808;9.476;2023-12-29T04:14:02;32.47;;;29.17;;
20044;SDS011;10183;47.808;9.476;2023-12-29T04:16:48;31.93;;;28.60;;
20044;SDS011;10183;47.808;9.476;2023-12-29T04:19:34;31.63;;;28.53;;
20044;SDS011;10183;47.808;9.476;2023-12-29T04:22:20;31.30;;;27.00;;
20044;SDS011;10183;47.808;9.476;2023-12-29T04:25:06;32.23;;;29.03;;
20044;SDS011;10183;47.808;9.476;2023-12-29T04:27:52;33.13;;;29.80;;
20044;SDS011;10183;47.808;9.476;2023-12-29T04:30:38;30.40;;;27.40;;
20044;SDS011;10183;47.808;9.476;2023-12-29T04:33:24;32.50;;;28.90;;
20044;SDS011;10183;47.808;9.476;2023-12-29T04:36:10;31.03;;;27.93;;
20044;SDS011;10183;47.808;9.476;2023-12-29T04:38:57;30.70;;;27.50;;
20044;SDS011;10183;47.808;9.476;2023-12-29T04:41:43;35.63;;;32.17;;
20044;SDS011;10183;47.808;9.476;2023-12-29T04:44:29;33.20;;;30.03;;
20044;SDS011;10183;47.808;9.476;2023-12-29T04:47:14;32.30;;;29.10;;
20044;SDS011;10183;47.808;9.476;2023-12-29T04:50:02;34.60;;;31.07;;
20044;SDS011;10183;47.808;9.476;2023-12-29T04:52:48;34.47;;;31.07;;
20044;SDS011;10183;47.808;9.476;2023-12-29T04:55:34;34.63;;;31.23;;
20044;SDS011;10183;47.808;9.476;2023-12-29T04:58:20;33.83;;;30.23;;
20044;SDS011;10183;47.808;9.476;2023-12-29T05:01:06;32.60;;;29.30;;
20044;SDS011;10183;47.808;9.476;2023-12-29T05:03:53;32.23;;;28.90;;
20044;SDS011;10183;47.808;9.476;2023-12-29T05:06:39;34.27;;;30.73;;
20044;SDS011;10183;47.808;9.476;2023-12-29T05:09:26;35.13;;;31.67;;
20044;SDS011;10183;47.808;9.476;2023-12-29T05:12:12;33.40;;;30.20;;
20044;SDS011;10183;47.808;9.476;2023-12-29T05:14:58;34.33;;;31.13;;
20044;SDS011;10183;47.808;9.476;2023-12-29T05:17:44;33.07;;;29.63;;
20044;SDS011;10183;47.808;9.476;2023-12-29T05:20:30;32.87;;;29.80;;
20044;SDS011;10183;47.808;9.476;2023-12-29T05:23:16;35.13;;;31.53;;
20044;SDS011;10183;47.808;9.476;2023-12-29T05:26:02;36.73;;;33.40;;
20044;SDS011;10183;47.808;9.476;2023-12-29T05:28:48;35.10;;;31.90;;
20044;SDS011;10183;47.808;9.476;2023-12-29T05:31:34;35.90;;;32.33;;
20044;SDS011;10183;47.808;9.476;2023-12-29T05:34:19;34.00;;;30.83;;
20044;SDS011;10183;47.808;9.476;2023-12-29T05:37:05;33.63;;;30.67;;
20044;SDS011;10183;47.808;9.476;2023-12-29T05:39:51;34.67;;;31.40;;
20044;SDS011;10183;47.808;9.476;2023-12-29T05:42:37;34.90;;;31.53;;
20044;SDS011;10183;47.808;9.476;2023-12-29T05:45:23;35.47;;;32.00;;
20044;SDS011;10183;47.808;9.476;2023-12-29T05:48:09;35.57;;;31.87;;
20044;SDS011;10183;47.808;9.476;2023-12-29T05:50:55;32.37;;;29.47;;
20044;SDS011;10183;47.808;9.476;2023-12-29T05:53:41;33.20;;;30.23;;
20044;SDS011;10183;47.808;9.476;2023-12-29T05:56:27;33.90;;;30.80;;
20044;SDS011;10183;47.808;9.476;2023-12-29T05:59:13;34.57;;;31.47;;
20044;SDS011;10183;47.808;9.476;2023-12-29T06:01:59;34.10;;;31.00;;
20044;SDS011;10183;47.808;9.476;2023-12-29T06:04:45;31.70;;;28.67;;
20044;SDS011;10183;47.808;9.476;2023-12-29T06:07:31;30.93;;;28.23;;
20044;SDS011;10183;47.808;9.476;2023-12-29T06:10:17;31.47;;;28.40;;
20044;SDS011;10183;47.808;9.476;2023-12-29T06:13:03;32.53;;;29.43;;
20044;SDS011;10183;47.808;9.476;2023-12-29T06:15:49;32.77;;;29.67;;
20044;SDS011;10183;47.808;9.476;2023-12-29T06:18:35;34.33;;;31.33;;
20044;SDS011;10183;47.808;9.476;2023-12-29T06:21:21;32.30;;;29.33;;
20044;SDS011;10183;47.808;9.476;2023-12-29T06:24:07;31.93;;;29.03;;
20044;SDS011;10183;47.808;9.476;2023-12-29T06:26:53;30.47;;;27.57;;
20044;SDS011;10183;47.808;9.476;2023-12-29T06:29:40;30.73;;;27.70;;
20044;SDS011;10183;47.808;9.476;2023-12-29T06:32:27;28.03;;;25.33;;
20044;SDS011;10183;47.808;9.476;2023-12-29T06:35:13;28.33;;;25.47;;
20044;SDS011;10183;47.808;9.476;2023-12-29T06:37:59;32.07;;;28.87;;
20044;SDS011;10183;47.808;9.476;2023-12-29T06:40:45;30.23;;;27.40;;
20044;SDS011;10183;47.808;9.476;2023-12-29T06:43:31;31.20;;;28.40;;
20044;SDS011;10183;47.808;9.476;2023-12-29T06:46:17;31.27;;;28.13;;
20044;SDS011;10183;47.808;9.476;2023-12-29T06:49:03;28.73;;;25.83;;
20044;SDS011;10183;47.808;9.476;2023-12-29T06:51:49;31.30;;;27.53;;
20044;SDS011;10183;47.808;9.476;2023-12-29T06:54:34;28.83;;;26.00;;
20044;SDS011;10183;47.808;9.476;2023-12-29T06:57:20;27.63;;;24.93;;
20044;SDS011;10183;47.808;9.476;2023-12-29T07:00:06;31.87;;;28.90;;
20044;SDS011;10183;47.808;9.476;2023-12-29T07:02:53;30.57;;;27.80;;
20044;SDS011;10183;47.808;9.476;2023-12-29T07:05:39;30.57;;;27.73;;
20044;SDS011;10183;47.808;9.476;2023-12-29T07:08:25;27.77;;;24.97;;
20044;SDS011;10183;47.808;9.476;2023-12-29T07:11:11;27.67;;;25.03;;
20044;SDS011;10183;47.808;9.476;2023-12-29T07:13:57;28.20;;;25.57;;
20044;SDS011;10183;47.808;9.476;2023-12-29T07:16:43;27.37;;;24.97;;
20044;SDS011;10183;47.808;9.476;2023-12-29T07:19:29;29.73;;;26.93;;
20044;SDS011;10183;47.808;9.476;2023-12-29T07:22:22;30.23;;;27.43;;
20044;SDS011;10183;47.808;9.476;2023-12-29T07:25:08;28.70;;;25.90;;
20044;SDS011;10183;47.808;9.476;2023-12-29T07:27:55;42.07;;;38.13;;
20044;SDS011;10183;47.808;9.476;2023-12-29T07:30:41;42.00;;;37.80;;
20044;SDS011;10183;47.808;9.476;2023-12-29T07:33:27;56.17;;;51.37;;
20044;SDS011;10183;47.808;9.476;2023-12-29T07:36:13;54.73;;;50.03;;
20044;SDS011;10183;47.808;9.476;2023-12-29T07:38:59;55.33;;;50.43;;
20044;SDS011;10183;47.808;9.476;2023-12-29T07:41:45;53.17;;;48.57;;
20044;SDS011;10183;47.808;9.476;2023-12-29T07:44:31;50.03;;;45.43;;
20044;SDS011;10183;47.808;9.476;2023-12-29T07:47:17;52.47;;;47.63;;
20044;SDS011;10183;47.808;9.476;2023-12-29T07:50:03;52.63;;;47.77;;
20044;SDS011;10183;47.808;9.476;2023-12-29T07:52:50;51.93;;;47.97;;
20044;SDS011;10183;47.808;9.476;2023-12-29T07:55:39;54.53;;;50.33;;
20044;SDS011;10183;47.808;9.476;2023-12-29T07:58:26;49.97;;;45.27;;
20044;SDS011;10183;47.808;9.476;2023-12-29T08:01:11;49.03;;;45.23;;
20044;SDS011;10183;47.808;9.476;2023-12-29T08:03:57;38.43;;;34.73;;
20044;SDS011;10183;47.808;9.476;2023-12-29T08:06:43;35.60;;;32.00;;
20044;SDS011;10183;47.808;9.476;2023-12-29T08:09:30;27.93;;;24.93;;
20044;SDS011;10183;47.808;9.476;2023-12-29T08:12:16;31.37;;;28.00;;
20044;SDS011;10183;47.808;9.476;2023-12-29T08:15:02;32.03;;;28.77;;
20044;SDS011;10183;47.808;9.476;2023-12-29T08:17:48;33.27;;;29.77;;
20044;SDS011;10183;47.808;9.476;2023-12-29T08:20:34;29.77;;;26.63;;
20044;SDS011;10183;47.808;9.476;2023-12-29T08:23:20;29.83;;;26.67;;
20044;SDS011;10183;47.808;9.476;2023-12-29T08:26:06;36.87;;;32.27;;
20044;SDS011;10183;47.808;9.476;2023-12-29T08:28:52;35.67;;;31.60;;
20044;SDS011;10183;47.808;9.476;2023-12-29T08:31:38;35.60;;;31.80;;
20044;SDS011;10183;47.808;9.476;2023-12-29T08:34:24;44.53;;;40.33;;
20044;SDS011;10183;47.808;9.476;2023-12-29T08:37:10;46.00;;;41.63;;
20044;SDS011;10183;47.808;9.476;2023-12-29T08:39:56;48.10;;;43.60;;
20044;SDS011;10183;47.808;9.476;2023-12-29T08:42:42;48.33;;;43.63;;
20044;SDS011;10183;47.808;9.476;2023-12-29T08:45:28;32.30;;;29.40;;
20044;SDS011;10183;47.808;9.476;2023-12-29T08:48:14;38.13;;;34.37;;
20044;SDS011;10183;47.808;9.476;2023-12-29T08:51:01;36.47;;;33.23;;
20044;SDS011;10183;47.808;9.476;2023-12-29T08:53:47;34.20;;;31.10;;
20044;SDS011;10183;47.808;9.476;2023-12-29T08:56:33;34.13;;;30.87;;
20044;SDS011;10183;47.808;9.476;2023-12-29T08:59:18;31.40;;;28.40;;
20044;SDS011;10183;47.808;9.476;2023-12-29T09:02:05;32.40;;;28.90;;
20044;SDS011;10183;47.808;9.476;2023-12-29T09:04:51;34.27;;;30.97;;
20044;SDS011;10183;47.808;9.476;2023-12-29T09:07:37;32.83;;;29.53;;
20044;SDS011;10183;47.808;9.476;2023-12-29T09:10:23;30.57;;;26.60;;
20044;SDS011;10183;47.808;9.476;2023-12-29T09:13:09;30.10;;;27.23;;
20044;SDS011;10183;47.808;9.476;2023-12-29T09:15:55;32.07;;;29.03;;
20044;SDS011;10183;47.808;9.476;2023-12-29T09:18:41;35.63;;;32.40;;
20044;SDS011;10183;47.808;9.476;2023-12-29T09:21:27;32.60;;;29.40;;
20044;SDS011;10183;47.808;9.476;2023-12-29T09:24:13;35.47;;;32.17;;
20044;SDS011;10183;47.808;9.476;2023-12-29T09:26:59;36.20;;;32.77;;
20044;SDS011;10183;47.808;9.476;2023-12-29T09:29:46;35.17;;;31.87;;
20044;SDS011;10183;47.808;9.476;2023-12-29T09:32:32;34.17;;;30.97;;
20044;SDS011;10183;47.808;9.476;2023-12-29T09:35:18;31.73;;;28.63;;
20044;SDS011;10183;47.808;9.476;2023-12-29T09:38:06;32.57;;;29.67;;
20044;SDS011;10183;47.808;9.476;2023-12-29T09:40:52;34.43;;;31.33;;
20044;SDS011;10183;47.808;9.476;2023-12-29T09:43:39;31.90;;;28.90;;
20044;SDS011;10183;47.808;9.476;2023-12-29T09:46:26;36.37;;;32.60;;
20044;SDS011;10183;47.808;9.476;2023-12-29T09:49:17;36.60;;;32.77;;
20044;SDS011;10183;47.808;9.476;2023-12-29T09:52:05;35.70;;;32.30;;
20044;SDS011;10183;47.808;9.476;2023-12-29T09:54:55;32.63;;;29.63;;
20044;SDS011;10183;47.808;9.476;2023-12-29T09:57:41;30.93;;;27.67;;
20044;SDS011;10183;47.808;9.476;2023-12-29T10:00:28;27.77;;;24.90;;
20044;SDS011;10183;47.808;9.476;2023-12-29T10:03:14;32.80;;;29.50;;
20044;SDS011;10183;47.808;9.476;2023-12-29T10:06:00;29.77;;;26.87;;
20044;SDS011;10183;47.808;9.476;2023-12-29T10:08:52;26.63;;;23.87;;
20044;SDS011;10183;47.808;9.476;2023-12-29T10:11:40;33.87;;;30.57;;
20044;SDS011;10183;47.808;9.476;2023-12-29T10:14:45;33.80;;;30.70;;
20044;SDS011;10183;47.808;9.476;2023-12-29T10:20:45;37.63;;;34.13;;
20044;SDS011;10183;47.808;9.476;2023-12-29T10:23:43;36.03;;;32.50;;
20044;SDS011;10183;47.808;9.476;2023-12-29T10:26:40;38.70;;;35.17;;
20044;SDS011;10183;47.808;9.476;2023-12-29T10:29:28;34.80;;;31.40;;
20044;SDS011;10183;47.808;9.476;2023-12-29T10:32:15;36.13;;;32.70;;
20044;SDS011;10183;47.808;9.476;2023-12-29T10:35:10;39.20;;;35.47;;
20044;SDS011;10183;47.808;9.476;2023-12-29T10:38:12;37.93;;;34.33;;
20044;SDS011;10183;47.808;9.476;2023-12-29T10:44:00;40.30;;;36.50;;
20044;SDS011;10183;47.808;9.476;2023-12-29T10:46:52;43.20;;;39.00;;
20044;SDS011;10183;47.808;9.476;2023-12-29T10:49:39;39.90;;;35.87;;
20044;SDS011;10183;47.808;9.476;2023-12-29T10:52:26;39.83;;;35.83;;
20044;SDS011;10183;47.808;9.476;2023-12-29T10:55:13;38.77;;;35.00;;
20044;SDS011;10183;47.808;9.476;2023-12-29T10:57:59;42.43;;;38.43;;
20044;SDS011;10183;47.808;9.476;2023-12-29T11:00:46;42.20;;;38.07;;
20044;SDS011;10183;47.808;9.476;2023-12-29T11:03:32;41.17;;;37.37;;
20044;SDS011;10183;47.808;9.476;2023-12-29T11:06:18;47.63;;;43.40;;
20044;SDS011;10183;47.808;9.476;2023-12-29T11:09:04;46.17;;;41.77;;
20044;SDS011;10183;47.808;9.476;2023-12-29T11:11:50;40.60;;;37.00;;
20044;SDS011;10183;47.808;9.476;2023-12-29T11:14:37;45.40;;;41.30;;
20044;SDS011;10183;47.808;9.476;2023-12-29T11:17:23;49.97;;;45.57;;
20044;SDS011;10183;47.808;9.476;2023-12-29T11:20:11;40.70;;;36.80;;
20044;SDS011;10183;47.808;9.476;2023-12-29T11:22:58;38.17;;;34.40;;
20044;SDS011;10183;47.808;9.476;2023-12-29T11:25:46;43.57;;;39.53;;
20044;SDS011;10183;47.808;9.476;2023-12-29T11:28:34;40.63;;;36.73;;
20044;SDS011;10183;47.808;9.476;2023-12-29T11:31:20;44.77;;;40.37;;
20044;SDS011;10183;47.808;9.476;2023-12-29T11:34:27;46.30;;;41.70;;
20044;SDS011;10183;47.808;9.476;2023-12-29T11:40:36;40.00;;;36.00;;
20044;SDS011;10183;47.808;9.476;2023-12-29T11:43:34;45.50;;;40.97;;
20044;SDS011;10183;47.808;9.476;2023-12-29T11:49:26;45.10;;;40.80;;
20044;SDS011;10183;47.808;9.476;2023-12-29T11:52:35;40.73;;;36.80;;
20044;SDS011;10183;47.808;9.476;2023-12-29T11:55:34;42.43;;;38.43;;
20044;SDS011;10183;47.808;9.476;2023-12-29T11:58:24;40.83;;;36.93;;
20044;SDS011;10183;47.808;9.476;2023-12-29T12:01:13;44.17;;;39.87;;
20044;SDS011;10183;47.808;9.476;2023-12-29T12:13:09;42.00;;;37.90;;
20044;SDS011;10183;47.808;9.476;2023-12-29T12:15:55;45.33;;;40.93;;
20044;SDS011;10183;47.808;9.476;2023-12-29T12:18:40;42.63;;;38.27;;
20044;SDS011;10183;47.808;9.476;2023-12-29T12:21:27;43.47;;;39.20;;
20044;SDS011;10183;47.808;9.476;2023-12-29T12:24:13;47.20;;;42.53;;
20044;SDS011;10183;47.808;9.476;2023-12-29T12:26:59;44.27;;;40.07;;
20044;SDS011;10183;47.808;9.476;2023-12-29T12:29:48;44.27;;;39.77;;
20044;SDS011;10183;47.808;9.476;2023-12-29T12:32:34;45.23;;;40.93;;
20044;SDS011;10183;47.808;9.476;2023-12-29T12:35:21;45.57;;;41.37;;
20044;SDS011;10183;47.808;9.476;2023-12-29T12:38:10;43.63;;;39.63;;
20044;SDS011;10183;47.808;9.476;2023-12-29T12:40:57;43.27;;;39.27;;
20044;SDS011;10183;47.808;9.476;2023-12-29T12:44:05;34.90;;;31.70;;
20044;SDS011;10183;47.808;9.476;2023-12-29T12:46:58;30.77;;;27.67;;
20044;SDS011;10183;47.808;9.476;2023-12-29T12:49:47;26.73;;;24.03;;
20044;SDS011;10183;47.808;9.476;2023-12-29T12:52:33;27.90;;;25.10;;
20044;SDS011;10183;47.808;9.476;2023-12-29T12:55:21;25.90;;;23.30;;
20044;SDS011;10183;47.808;9.476;2023-12-29T12:58:07;36.60;;;33.30;;
20044;SDS011;10183;47.808;9.476;2023-12-29T13:00:54;36.80;;;33.50;;
20044;SDS011;10183;47.808;9.476;2023-12-29T13:03:43;40.60;;;36.90;;
20044;SDS011;10183;47.808;9.476;2023-12-29T13:06:31;40.37;;;36.67;;
20044;SDS011;10183;47.808;9.476;2023-12-29T13:09:18;38.20;;;34.60;;
20044;SDS011;10183;47.808;9.476;2023-12-29T13:12:11;40.77;;;36.80;;
20044;SDS011;10183;47.808;9.476;2023-12-29T13:15:05;39.37;;;35.57;;
20044;SDS011;10183;47.808;9.476;2023-12-29T13:17:55;37.50;;;33.73;;
20044;SDS011;10183;47.808;9.476;2023-12-29T13:20:46;37.50;;;33.83;;
20044;SDS011;10183;47.808;9.476;2023-12-29T13:23:32;37.50;;;33.80;;
20044;SDS011;10183;47.808;9.476;2023-12-29T13:26:19;37.17;;;33.57;;
20044;SDS011;10183;47.808;9.476;2023-12-29T13:29:05;42.00;;;37.93;;
20044;SDS011;10183;47.808;9.476;2023-12-29T13:31:52;40.10;;;36.20;;
20044;SDS011;10183;47.808;9.476;2023-12-29T13:40:52;41.30;;;37.30;;
20044;SDS011;10183;47.808;9.476;2023-12-29T13:43:40;40.40;;;36.40;;
20044;SDS011;10183;47.808;9.476;2023-12-29T13:46:31;40.50;;;36.50;;
20044;SDS011;10183;47.808;9.476;2023-12-29T13:49:18;39.10;;;35.33;;
20044;SDS011;10183;47.808;9.476;2023-12-29T13:52:04;40.23;;;36.13;;
20044;SDS011;10183;47.808;9.476;2023-12-29T13:54:51;41.33;;;37.13;;
20044;SDS011;10183;47.808;9.476;2023-12-29T13:57:37;39.67;;;35.73;;
20044;SDS011;10183;47.808;9.476;2023-12-29T14:00:24;38.53;;;34.63;;
20044;SDS011;10183;47.808;9.476;2023-12-29T14:03:21;38.27;;;34.67;;
20044;SDS011;10183;47.808;9.476;2023-12-29T14:06:11;39.43;;;35.63;;
20044;SDS011;10183;47.808;9.476;2023-12-29T14:09:04;39.90;;;36.10;;
20044;SDS011;10183;47.808;9.476;2023-12-29T14:11:53;36.57;;;33.07;;
20044;SDS011;10183;47.808;9.476;2023-12-29T14:14:39;36.47;;;32.87;;
20044;SDS011;10183;47.808;9.476;2023-12-29T14:17:25;36.63;;;33.20;;
20044;SDS011;10183;47.808;9.476;2023-12-29T14:20:13;38.77;;;35.17;;
20044;SDS011;10183;47.808;9.476;2023-12-29T14:23:19;36.77;;;33.17;;
20044;SDS011;10183;47.808;9.476;2023-12-29T14:26:06;37.97;;;34.30;;
20044;SDS011;10183;47.808;9.476;2023-12-29T14:29:06;36.70;;;33.27;;
20044;SDS011;10183;47.808;9.476;2023-12-29T14:31:57;40.10;;;36.40;;
20044;SDS011;10183;47.808;9.476;2023-12-29T14:34:47;35.63;;;32.20;;
20044;SDS011;10183;47.808;9.476;2023-12-29T14:37:38;32.40;;;29.10;;
20044;SDS011;10183;47.808;9.476;2023-12-29T14:40:24;36.77;;;33.07;;
20044;SDS011;10183;47.808;9.476;2023-12-29T14:43:10;34.07;;;30.80;;
20044;SDS011;10183;47.808;9.476;2023-12-29T14:45:56;34.23;;;30.73;;
20044;SDS011;10183;47.808;9.476;2023-12-29T14:48:42;33.50;;;30.00;;
20044;SDS011;10183;47.808;9.476;2023-12-29T14:51:28;36.40;;;32.90;;
20044;SDS011;10183;47.808;9.476;2023-12-29T14:54:14;34.40;;;31.20;;
20044;SDS011;10183;47.808;9.476;2023-12-29T14:57:00;33.60;;;30.43;;
20044;SDS011;10183;47.808;9.476;2023-12-29T14:59:46;30.97;;;27.93;;
20044;SDS011;10183;47.808;9.476;2023-12-29T15:02:32;33.93;;;30.83;;
20044;SDS011;10183;47.808;9.476;2023-12-29T15:05:18;35.03;;;31.60;;
20044;SDS011;10183;47.808;9.476;2023-12-29T15:08:04;32.97;;;29.93;;
20044;SDS011;10183;47.808;9.476;2023-12-29T15:10:50;33.30;;;30.10;;
20044;SDS011;10183;47.808;9.476;2023-12-29T15:13:37;33.10;;;29.90;;
20044;SDS011;10183;47.808;9.476;2023-12-29T15:16:23;35.30;;;31.80;;
20044;SDS011;10183;47.808;9.476;2023-12-29T15:19:09;34.30;;;31.10;;
20044;SDS011;10183;47.808;9.476;2023-12-29T15:21:55;31.97;;;28.97;;
20044;SDS011;10183;47.808;9.476;2023-12-29T15:24:41;37.03;;;34.23;;
20044;SDS011;10183;47.808;9.476;2023-12-29T15:27:28;40.70;;;37.00;;
20044;SDS011;10183;47.808;9.476;2023-12-29T15:30:14;40.07;;;36.17;;
20044;SDS011;10183;47.808;9.476;2023-12-29T15:33:02;41.63;;;37.93;;
20044;SDS011;10183;47.808;9.476;2023-12-29T15:35:48;40.40;;;36.70;;
20044;SDS011;10183;47.808;9.476;2023-12-29T15:38:34;38.43;;;35.20;;
20044;SDS011;10183;47.808;9.476;2023-12-29T15:41:20;45.47;;;41.77;;
20044;SDS011;10183;47.808;9.476;2023-12-29T15:44:07;29.00;;;26.60;;
20044;SDS011;10183;47.808;9.476;2023-12-29T15:46:53;30.30;;;27.53;;
20044;SDS011;10183;47.808;9.476;2023-12-29T15:49:40;29.30;;;26.57;;
20044;SDS011;10183;47.808;9.476;2023-12-29T15:52:28;31.07;;;28.67;;
20044;SDS011;10183;47.808;9.476;2023-12-29T15:55:14;28.83;;;26.43;;
20044;SDS011;10183;47.808;9.476;2023-12-29T15:58:01;28.23;;;25.93;;
20044;SDS011;10183;47.808;9.476;2023-12-29T16:00:49;25.00;;;22.90;;
20044;SDS011;10183;47.808;9.476;2023-12-29T16:03:36;25.00;;;23.00;;
20044;SDS011;10183;47.808;9.476;2023-12-29T16:06:22;23.20;;;21.10;;
20044;SDS011;10183;47.808;9.476;2023-12-29T16:09:10;24.50;;;22.40;;
20044;SDS011;10183;47.808;9.476;2023-12-29T16:11:56;27.47;;;25.37;;
20044;SDS011;10183;47.808;9.476;2023-12-29T16:14:42;30.87;;;28.67;;
20044;SDS011;10183;47.808;9.476;2023-12-29T16:17:28;29.70;;;27.60;;
20044;SDS011;10183;47.808;9.476;2023-12-29T16:20:14;31.63;;;29.33;;
20044;SDS011;10183;47.808;9.476;2023-12-29T16:23:00;30.70;;;28.53;;
20044;SDS011;10183;47.808;9.476;2023-12-29T16:25:46;31.07;;;28.80;;
20044;SDS011;10183;47.808;9.476;2023-12-29T16:28:32;31.47;;;29.20;;
20044;SDS011;10183;47.808;9.476;2023-12-29T16:31:18;31.23;;;29.03;;
20044;SDS011;10183;47.808;9.476;2023-12-29T16:34:04;31.00;;;28.80;;
20044;SDS011;10183;47.808;9.476;2023-12-29T16:36:57;29.10;;;26.90;;
20044;SDS011;10183;47.808;9.476;2023-12-29T16:39:44;24.20;;;22.40;;
20044;SDS011;10183;47.808;9.476;2023-12-29T16:42:30;27.50;;;25.60;;
20044;SDS011;10183;47.808;9.476;2023-12-29T16:45:16;29.10;;;26.90;;
20044;SDS011;10183;47.808;9.476;2023-12-29T16:48:02;25.40;;;23.50;;